createdAt,value
2022-08-09T00:05:03.654Z,41.19
2022-08-09T00:10:26.848Z,41.32
2022-08-09T00:15:58.767Z,41.77
2022-08-09T00:21:24.276Z,42.09
2022-08-09T00:26:46.209Z,41.85
2022-08-09T00:32:07.982Z,42.71
2022-08-09T00:37:34.546Z,43.20
2022-08-09T00:44:13.490Z,44.00
2022-08-09T00:48:38.755Z,44.40
2022-08-09T00:54:01.910Z,44.31
2022-08-09T00:59:40.972Z,44.88
2022-08-09T01:05:14.086Z,45.11
2022-08-09T01:10:58.873Z,45.37
2022-08-09T01:16:23.884Z,45.66
2022-08-09T01:22:04.141Z,45.39
2022-08-09T01:27:35.981Z,45.54
2022-08-09T01:33:00.644Z,46.19
2022-08-09T01:38:29.890Z,46.39
2022-08-09T01:43:55.907Z,46.79
2022-08-09T01:49:24.336Z,47.68
2022-08-09T01:54:50.620Z,47.11
2022-08-09T02:00:34.393Z,47.09
2022-08-09T02:06:06.171Z,47.88
2022-08-09T02:11:42.071Z,47.54
2022-08-09T02:17:15.408Z,47.46
2022-08-09T02:22:53.930Z,47.17
2022-08-09T02:28:28.718Z,47.25
2022-08-09T02:34:06.675Z,47.17
2022-08-09T02:39:41.885Z,47.99
2022-08-09T02:45:10.310Z,48.07
2022-08-09T02:50:38.184Z,48.57
2022-08-09T02:56:02.101Z,48.82
2022-08-09T03:01:29.674Z,48.58
2022-08-09T03:07:13.749Z,48.43
2022-08-09T03:12:38.972Z,49.08
2022-08-09T03:18:03.581Z,49.95
2022-08-09T03:23:32.658Z,50.11
2022-08-09T03:28:59.014Z,49.73
2022-08-09T03:34:21.051Z,51.03
2022-08-09T03:39:48.665Z,51.30
2022-08-09T03:45:17.451Z,51.35
2022-08-09T03:50:59.871Z,51.12
2022-08-09T03:56:23.364Z,51.11
2022-08-09T04:01:46.798Z,51.03
2022-08-09T04:07:08.878Z,50.94
2022-08-09T04:12:44.674Z,51.55
2022-08-09T04:18:06.858Z,52.15
2022-08-09T04:23:28.586Z,52.97
2022-08-09T04:28:50.670Z,53.12
2022-08-09T04:34:12.402Z,53.57
2022-08-09T04:39:40.626Z,53.52
2022-08-09T04:45:03.682Z,54.33
2022-08-09T04:50:25.420Z,53.76
2022-08-09T04:55:58.260Z,53.14
2022-08-09T05:01:21.234Z,52.65
2022-08-09T05:06:44.273Z,53.42
2022-08-09T05:12:06.151Z,53.82
2022-08-09T05:18:55.194Z,53.95
2022-08-09T05:23:54.966Z,54.28
2022-08-09T05:28:52.129Z,54.48
2022-08-09T05:34:16.359Z,53.70
2022-08-09T05:39:43.797Z,52.39
2022-08-09T05:45:07.045Z,52.83
2022-08-09T05:50:50.757Z,52.49
2022-08-09T05:56:12.117Z,52.08
2022-08-09T06:01:42.305Z,51.88
2022-08-09T06:07:04.657Z,52.01
2022-08-09T06:12:27.419Z,52.73
2022-08-09T06:17:49.237Z,52.13
2022-08-09T06:23:15.670Z,52.28
2022-08-09T06:28:37.474Z,51.25
2022-08-09T06:33:59.269Z,50.98
2022-08-09T06:39:21.124Z,51.80
2022-08-09T06:44:42.867Z,51.98
2022-08-09T06:50:13.664Z,51.76
2022-08-09T06:55:38.297Z,49.98
2022-08-09T07:01:01.078Z,50.53
2022-08-09T07:06:23.080Z,50.51
2022-08-09T07:11:53.472Z,50.89
2022-08-09T07:17:16.811Z,49.11
2022-08-09T07:22:46.445Z,49.21
2022-08-09T07:28:19.273Z,49.08
2022-08-09T07:33:53.138Z,49.48
2022-08-09T07:39:20.236Z,48.05
2022-08-09T07:45:06.331Z,46.91
2022-08-09T07:50:40.577Z,46.20
2022-08-09T07:56:03.465Z,45.32
2022-08-09T08:01:32.993Z,45.00
2022-08-09T08:07:00.313Z,45.25
2022-08-09T08:12:42.672Z,45.56
2022-08-09T08:18:06.094Z,45.63
2022-08-09T08:23:27.859Z,45.86
2022-08-09T08:28:50.852Z,46.23
2022-08-09T08:34:14.083Z,45.97
2022-08-09T08:39:39.682Z,45.39
2022-08-09T08:45:11.978Z,45.01
2022-08-09T08:50:35.548Z,44.64
2022-08-09T08:55:58.025Z,44.38
2022-08-09T09:01:24.757Z,43.57
2022-08-09T09:07:00.744Z,44.03
2022-08-09T09:12:29.093Z,42.93
2022-08-09T09:17:52.801Z,43.00
2022-08-09T09:23:14.976Z,42.20
2022-08-09T09:29:01.959Z,41.35
2022-08-09T09:34:19.552Z,39.85
2022-08-09T09:39:57.183Z,39.28
2022-08-09T09:45:26.366Z,38.43
2022-08-09T09:50:51.710Z,37.91
2022-08-09T09:56:30.901Z,37.89
2022-08-09T10:02:01.283Z,38.49
2022-08-09T10:07:25.881Z,38.76
2022-08-09T10:12:53.758Z,38.84
2022-08-09T10:18:16.718Z,37.55
2022-08-09T10:23:39.793Z,36.99
2022-08-09T10:29:21.366Z,37.02
2022-08-09T10:34:45.521Z,36.67
2022-08-09T10:40:12.150Z,36.20
2022-08-09T10:45:58.715Z,35.81
2022-08-09T10:51:40.863Z,35.11
2022-08-09T10:57:09.202Z,34.84
2022-08-09T11:03:11.839Z,34.17
2022-08-09T11:08:43.756Z,32.77
2022-08-09T11:14:35.830Z,32.57
2022-08-09T11:20:22.621Z,31.85
2022-08-09T11:25:48.403Z,31.63
2022-08-09T11:31:43.519Z,31.41
2022-08-09T11:37:23.989Z,31.16
2022-08-09T11:42:48.991Z,30.91
2022-08-09T11:48:26.153Z,30.85
2022-08-09T11:53:58.623Z,30.81
2022-08-09T11:59:30.394Z,30.43
2022-08-09T12:04:58.910Z,30.99
2022-08-09T12:10:38.662Z,31.00
2022-08-09T12:16:04.742Z,30.86
2022-08-09T12:21:38.271Z,31.21
2022-08-09T12:28:58.338Z,30.87
2022-08-09T12:32:43.181Z,30.50
2022-08-09T12:38:37.820Z,29.61
2022-08-09T12:44:06.555Z,29.67
2022-08-09T12:49:29.645Z,29.64
2022-08-09T12:56:13.056Z,29.88
2022-08-09T13:00:44.863Z,29.20
2022-08-09T13:06:15.952Z,28.45
2022-08-09T13:11:45.795Z,28.83
2022-08-09T13:17:16.107Z,30.00
2022-08-09T13:23:05.606Z,29.64
2022-08-09T13:28:36.081Z,29.09
2022-08-09T13:34:02.107Z,28.11
2022-08-09T13:41:49.608Z,27.55
2022-08-09T13:45:08.359Z,27.17
2022-08-09T13:50:34.141Z,27.07
2022-08-09T13:55:57.319Z,27.02
2022-08-09T14:01:56.277Z,26.73
2022-08-09T14:07:03.810Z,26.72
2022-08-09T14:12:26.042Z,26.99
2022-08-09T14:18:06.800Z,26.66
2022-08-09T14:23:54.201Z,26.90
2022-08-09T14:29:25.645Z,26.96
2022-08-09T14:34:56.897Z,26.89
2022-08-09T14:40:18.749Z,26.68
2022-08-09T14:46:57.564Z,26.51
2022-08-09T14:51:42.798Z,26.56
2022-08-09T14:57:05.702Z,26.66
2022-08-09T15:02:28.298Z,26.75
2022-08-09T15:07:56.361Z,26.08
2022-08-09T15:13:19.851Z,26.28
2022-08-09T15:18:49.037Z,26.47
2022-08-09T15:24:12.949Z,26.05
2022-08-09T15:30:55.711Z,26.37
2022-08-09T15:35:44.007Z,25.88
2022-08-09T15:41:09.353Z,26.00
2022-08-09T15:46:34.123Z,25.77
2022-08-09T15:52:04.580Z,26.21
2022-08-09T15:57:34.274Z,25.79
2022-08-09T16:02:57.911Z,25.92
2022-08-09T16:08:29.829Z,25.96
2022-08-09T16:14:06.128Z,26.20
2022-08-09T16:19:28.603Z,26.41
2022-08-09T16:24:59.580Z,25.79
2022-08-09T16:30:26.060Z,25.71
2022-08-09T16:35:56.379Z,25.86
2022-08-09T16:41:24.708Z,25.48
2022-08-09T16:48:36.998Z,25.71
2022-08-09T16:52:43.947Z,25.80
2022-08-09T16:58:08.519Z,25.85
2022-08-09T17:03:32.472Z,26.21
2022-08-09T17:09:02.722Z,25.68
2022-08-09T17:14:33.804Z,25.99
2022-08-09T17:20:32.325Z,26.03
2022-08-09T17:25:39.586Z,26.00
2022-08-09T17:31:01.567Z,26.15
2022-08-09T17:36:23.305Z,26.33
2022-08-09T17:41:47.886Z,26.51
2022-08-09T17:47:11.802Z,26.44
2022-08-09T17:52:35.187Z,26.99
2022-08-09T17:58:03.103Z,26.55
2022-08-09T18:03:30.233Z,26.89
2022-08-09T18:08:53.707Z,26.46
2022-08-09T18:14:16.195Z,27.02
2022-08-09T18:20:57.099Z,27.30
2022-08-09T18:25:20.321Z,27.19
2022-08-09T18:31:01.913Z,27.10
2022-08-09T18:36:26.099Z,27.60
2022-08-09T18:41:54.605Z,27.47
2022-08-09T18:47:19.550Z,27.93
2022-08-09T18:52:44.922Z,27.94
2022-08-09T18:58:12.677Z,28.21
2022-08-09T19:04:01.412Z,28.84
2022-08-09T19:10:13.392Z,29.38
2022-08-09T19:15:10.719Z,30.29
2022-08-09T19:20:39.194Z,30.63
2022-08-09T19:26:05.267Z,31.26
2022-08-09T19:31:27.255Z,31.32
2022-08-09T19:36:57.346Z,31.87
2022-08-09T19:42:19.824Z,31.76
2022-08-09T19:47:45.773Z,32.02
2022-08-09T19:53:08.275Z,32.75
2022-08-09T19:58:33.166Z,32.99
2022-08-09T20:04:18.484Z,32.80
2022-08-09T20:09:44.479Z,33.27
2022-08-09T20:16:37.289Z,33.13
2022-08-09T20:20:55.141Z,32.96
2022-08-09T20:26:17.217Z,33.27
2022-08-09T20:32:16.962Z,33.31
2022-08-09T20:37:21.526Z,33.55
2022-08-09T20:42:53.288Z,33.50
2022-08-09T20:48:22.244Z,34.29
2022-08-09T20:53:44.190Z,34.78
2022-08-09T20:59:05.941Z,34.63
2022-08-09T21:05:57.882Z,34.79
2022-08-09T21:10:11.487Z,34.57
2022-08-09T21:15:35.018Z,35.58
2022-08-09T21:20:57.213Z,35.11
2022-08-09T21:26:19.049Z,35.21
2022-08-09T21:31:49.226Z,35.81
2022-08-09T21:37:18.142Z,35.95
2022-08-09T21:42:40.338Z,35.97
2022-08-09T21:48:07.216Z,36.04
2022-08-09T21:53:40.627Z,36.30
2022-08-09T21:59:03.218Z,35.58
2022-08-09T22:04:55.334Z,36.16
2022-08-09T22:10:08.179Z,35.68
2022-08-09T22:15:35.074Z,36.11
2022-08-09T22:20:58.848Z,36.20
2022-08-09T22:26:34.209Z,35.93
2022-08-09T22:31:58.057Z,36.47
2022-08-09T22:37:20.116Z,36.20
2022-08-09T22:42:43.742Z,36.63
2022-08-09T22:48:30.155Z,37.02
2022-08-09T22:54:02.494Z,36.88
2022-08-09T22:59:55.145Z,36.75
2022-08-09T23:05:07.396Z,36.75
2022-08-09T23:10:30.213Z,36.88
2022-08-09T23:16:02.660Z,37.50
2022-08-09T23:21:31.294Z,37.58
2022-08-09T23:26:55.475Z,38.07
2022-08-09T23:32:17.216Z,37.93
2022-08-09T23:37:38.933Z,38.45
2022-08-09T23:43:00.649Z,38.38
2022-08-09T23:48:22.356Z,38.45
2022-08-09T23:53:44.188Z,39.07
2022-08-09T23:59:05.928Z,39.13
